sensor_id;sensor_type;location;lat;lon;timestamp;temperature;humidity
23081;DHT22;11708;50.570;8.532;2023-04-08T00:00:48;5.80;99.90
23081;DHT22;11708;50.570;8.532;2023-04-08T00:03:14;5.70;99.90
23081;DHT22;11708;50.570;8.532;2023-04-08T00:05:40;5.70;99.90
23081;DHT22;11708;50.570;8.532;2023-04-08T00:08:05;5.70;99.90
23081;DHT22;11708;50.570;8.532;2023-04-08T00:10:31;5.60;99.90
23081;DHT22;11708;50.570;8.532;2023-04-08T00:12:57;5.50;99.90
23081;DHT22;11708;50.570;8.532;2023-04-08T00:15:23;5.50;99.90
23081;DHT22;11708;50.570;8.532;2023-04-08T00:17:48;5.40;99.90
23081;DHT22;11708;50.570;8.532;2023-04-08T00:20:14;5.30;99.90
23081;DHT22;11708;50.570;8.532;2023-04-08T00:22:39;4.70;99.90
23081;DHT22;11708;50.570;8.532;2023-04-08T00:25:05;5.30;99.90
23081;DHT22;11708;50.570;8.532;2023-04-08T00:27:34;5.30;99.90
23081;DHT22;11708;50.570;8.532;2023-04-08T00:30:00;5.20;99.90
23081;DHT22;11708;50.570;8.532;2023-04-08T00:32:26;5.20;99.90
23081;DHT22;11708;50.570;8.532;2023-04-08T00:37:19;5.20;99.90
23081;DHT22;11708;50.570;8.532;2023-04-08T00:39:47;5.10;99.90
23081;DHT22;11708;50.570;8.532;2023-04-08T00:42:13;5.10;99.90
23081;DHT22;11708;50.570;8.532;2023-04-08T00:44:39;5.10;99.90
23081;DHT22;11708;50.570;8.532;2023-04-08T00:47:04;5.10;99.90
23081;DHT22;11708;50.570;8.532;2023-04-08T00:51:57;5.00;99.90
23081;DHT22;11708;50.570;8.532;2023-04-08T00:56:49;4.90;99.90
23081;DHT22;11708;50.570;8.532;2023-04-08T00:59:16;4.80;99.90
23081;DHT22;11708;50.570;8.532;2023-04-08T01:01:56;4.80;99.90
23081;DHT22;11708;50.570;8.532;2023-04-08T01:04:32;4.80;99.90
23081;DHT22;11708;50.570;8.532;2023-04-08T01:07:20;4.80;99.90
23081;DHT22;11708;50.570;8.532;2023-04-08T01:09:54;4.80;99.90
23081;DHT22;11708;50.570;8.532;2023-04-08T01:12:24;4.70;99.90
23081;DHT22;11708;50.570;8.532;2023-04-08T01:15:00;4.80;99.90
23081;DHT22;11708;50.570;8.532;2023-04-08T01:17:28;5.70;99.90
23081;DHT22;11708;50.570;8.532;2023-04-08T01:19:56;4.60;99.90
23081;DHT22;11708;50.570;8.532;2023-04-08T01:25:14;4.60;99.90
23081;DHT22;11708;50.570;8.532;2023-04-08T01:27:41;4.60;99.90
23081;DHT22;11708;50.570;8.532;2023-04-08T01:30:08;4.50;99.90
23081;DHT22;11708;50.570;8.532;2023-04-08T01:32:34;4.50;99.90
23081;DHT22;11708;50.570;8.532;2023-04-08T01:35:01;4.70;99.90
23081;DHT22;11708;50.570;8.532;2023-04-08T01:37:28;4.40;99.90
23081;DHT22;11708;50.570;8.532;2023-04-08T01:39:55;4.40;99.90
23081;DHT22;11708;50.570;8.532;2023-04-08T01:42:25;4.30;99.90
23081;DHT22;11708;50.570;8.532;2023-04-08T01:44:55;4.20;99.90
23081;DHT22;11708;50.570;8.532;2023-04-08T01:47:22;4.30;99.90
23081;DHT22;11708;50.570;8.532;2023-04-08T01:49:50;4.40;99.90
23081;DHT22;11708;50.570;8.532;2023-04-08T01:52:17;4.40;99.90
23081;DHT22;11708;50.570;8.532;2023-04-08T01:54:45;4.40;99.90
23081;DHT22;11708;50.570;8.532;2023-04-08T01:57:13;4.40;99.90
23081;DHT22;11708;50.570;8.532;2023-04-08T01:59:41;4.40;99.90
23081;DHT22;11708;50.570;8.532;2023-04-08T02:02:08;4.40;99.90
23081;DHT22;11708;50.570;8.532;2023-04-08T02:04:35;4.40;99.90
23081;DHT22;11708;50.570;8.532;2023-04-08T02:07:01;4.30;99.90
23081;DHT22;11708;50.570;8.532;2023-04-08T02:09:27;4.30;99.90
23081;DHT22;11708;50.570;8.532;2023-04-08T02:11:52;4.30;99.90
23081;DHT22;11708;50.570;8.532;2023-04-08T02:14:18;4.20;99.90
23081;DHT22;11708;50.570;8.532;2023-04-08T02:16:50;4.20;99.90
23081;DHT22;11708;50.570;8.532;2023-04-08T02:19:23;4.20;99.90
23081;DHT22;11708;50.570;8.532;2023-04-08T02:21:54;4.20;99.90
23081;DHT22;11708;50.570;8.532;2023-04-08T02:24:20;4.20;99.90
23081;DHT22;11708;50.570;8.532;2023-04-08T02:26:46;4.20;99.90
23081;DHT22;11708;50.570;8.532;2023-04-08T02:29:15;4.20;99.90
23081;DHT22;11708;50.570;8.532;2023-04-08T02:31:42;4.20;99.90
23081;DHT22;11708;50.570;8.532;2023-04-08T02:34:09;4.20;99.90
23081;DHT22;11708;50.570;8.532;2023-04-08T02:36:35;4.20;99.90
23081;DHT22;11708;50.570;8.532;2023-04-08T02:39:02;4.20;99.90
23081;DHT22;11708;50.570;8.532;2023-04-08T02:41:28;3.90;99.90
23081;DHT22;11708;50.570;8.532;2023-04-08T02:43:55;4.10;99.90
23081;DHT22;11708;50.570;8.532;2023-04-08T02:46:20;4.10;99.90
23081;DHT22;11708;50.570;8.532;2023-04-08T02:48:46;4.10;99.90
23081;DHT22;11708;50.570;8.532;2023-04-08T02:51:11;4.10;99.90
23081;DHT22;11708;50.570;8.532;2023-04-08T02:53:37;4.00;99.90
23081;DHT22;11708;50.570;8.532;2023-04-08T02:56:03;4.00;99.90
23081;DHT22;11708;50.570;8.532;2023-04-08T02:58:28;4.00;99.90
23081;DHT22;11708;50.570;8.532;2023-04-08T03:00:54;3.90;99.90
23081;DHT22;11708;50.570;8.532;2023-04-08T03:03:19;3.90;99.90
23081;DHT22;11708;50.570;8.532;2023-04-08T03:05:52;3.80;99.90
23081;DHT22;11708;50.570;8.532;2023-04-08T03:08:17;3.80;99.90
23081;DHT22;11708;50.570;8.532;2023-04-08T03:10:43;3.80;99.90
23081;DHT22;11708;50.570;8.532;2023-04-08T03:15:34;3.80;99.90
23081;DHT22;11708;50.570;8.532;2023-04-08T03:18:00;3.60;99.90
23081;DHT22;11708;50.570;8.532;2023-04-08T03:20:26;3.70;99.90
23081;DHT22;11708;50.570;8.532;2023-04-08T03:22:51;3.60;99.90
23081;DHT22;11708;50.570;8.532;2023-04-08T03:25:17;3.40;99.90
23081;DHT22;11708;50.570;8.532;2023-04-08T03:27:42;3.60;99.90
23081;DHT22;11708;50.570;8.532;2023-04-08T03:30:08;3.60;99.90
23081;DHT22;11708;50.570;8.532;2023-04-08T03:32:34;3.60;99.90
23081;DHT22;11708;50.570;8.532;2023-04-08T03:35:00;3.90;99.90
23081;DHT22;11708;50.570;8.532;2023-04-08T03:37:25;3.60;99.90
23081;DHT22;11708;50.570;8.532;2023-04-08T03:39:51;3.60;99.90
23081;DHT22;11708;50.570;8.532;2023-04-08T03:42:17;3.60;99.90
23081;DHT22;11708;50.570;8.532;2023-04-08T03:44:43;3.50;99.90
23081;DHT22;11708;50.570;8.532;2023-04-08T03:47:08;3.60;99.90
23081;DHT22;11708;50.570;8.532;2023-04-08T03:49:34;3.50;99.90
23081;DHT22;11708;50.570;8.532;2023-04-08T03:54:25;3.40;99.90
23081;DHT22;11708;50.570;8.532;2023-04-08T03:56:51;3.40;99.90
23081;DHT22;11708;50.570;8.532;2023-04-08T03:59:16;3.10;99.90
23081;DHT22;11708;50.570;8.532;2023-04-08T04:01:42;3.30;99.90
23081;DHT22;11708;50.570;8.532;2023-04-08T04:04:07;3.30;99.90
23081;DHT22;11708;50.570;8.532;2023-04-08T04:06:33;3.30;99.90
23081;DHT22;11708;50.570;8.532;2023-04-08T04:08:58;3.30;99.90
23081;DHT22;11708;50.570;8.532;2023-04-08T04:11:24;3.20;99.90
23081;DHT22;11708;50.570;8.532;2023-04-08T04:13:50;3.20;99.90
23081;DHT22;11708;50.570;8.532;2023-04-08T04:16:16;3.20;99.90
23081;DHT22;11708;50.570;8.532;2023-04-08T04:18:41;3.20;99.90
23081;DHT22;11708;50.570;8.532;2023-04-08T04:21:07;3.20;99.90
23081;DHT22;11708;50.570;8.532;2023-04-08T04:23:32;3.10;99.90
23081;DHT22;11708;50.570;8.532;2023-04-08T04:25:58;3.10;99.90
23081;DHT22;11708;50.570;8.532;2023-04-08T04:28:23;3.10;99.90
23081;DHT22;11708;50.570;8.532;2023-04-08T04:30:49;3.10;99.90
23081;DHT22;11708;50.570;8.532;2023-04-08T04:33:15;3.00;99.90
23081;DHT22;11708;50.570;8.532;2023-04-08T04:35:40;3.10;99.90
23081;DHT22;11708;50.570;8.532;2023-04-08T04:40:37;3.10;99.90
23081;DHT22;11708;50.570;8.532;2023-04-08T04:43:02;3.10;99.90
23081;DHT22;11708;50.570;8.532;2023-04-08T04:50:20;3.00;99.90
23081;DHT22;11708;50.570;8.532;2023-04-08T04:52:45;3.00;99.90
23081;DHT22;11708;50.570;8.532;2023-04-08T04:55:11;3.00;99.90
23081;DHT22;11708;50.570;8.532;2023-04-08T04:57:37;3.00;99.90
23081;DHT22;11708;50.570;8.532;2023-04-08T05:00:03;2.90;99.90
23081;DHT22;11708;50.570;8.532;2023-04-08T05:02:28;3.00;99.90
23081;DHT22;11708;50.570;8.532;2023-04-08T05:04:55;3.20;99.90
23081;DHT22;11708;50.570;8.532;2023-04-08T05:07:21;2.90;99.90
23081;DHT22;11708;50.570;8.532;2023-04-08T05:09:47;2.90;99.90
23081;DHT22;11708;50.570;8.532;2023-04-08T05:12:13;3.00;99.90
23081;DHT22;11708;50.570;8.532;2023-04-08T05:14:38;2.70;99.90
23081;DHT22;11708;50.570;8.532;2023-04-08T05:17:05;2.90;99.90
23081;DHT22;11708;50.570;8.532;2023-04-08T05:19:31;2.90;99.90
23081;DHT22;11708;50.570;8.532;2023-04-08T05:21:56;2.90;99.90
23081;DHT22;11708;50.570;8.532;2023-04-08T05:24:22;2.90;99.90
23081;DHT22;11708;50.570;8.532;2023-04-08T05:26:47;2.90;99.90
23081;DHT22;11708;50.570;8.532;2023-04-08T05:29:16;2.90;99.90
23081;DHT22;11708;50.570;8.532;2023-04-08T05:31:43;2.90;99.90
23081;DHT22;11708;50.570;8.532;2023-04-08T05:34:09;2.90;99.90
23081;DHT22;11708;50.570;8.532;2023-04-08T05:39:01;3.00;99.90
23081;DHT22;11708;50.570;8.532;2023-04-08T05:41:27;3.00;99.90
23081;DHT22;11708;50.570;8.532;2023-04-08T05:43:52;3.00;99.90
23081;DHT22;11708;50.570;8.532;2023-04-08T05:46:18;3.00;99.90
23081;DHT22;11708;50.570;8.532;2023-04-08T05:48:43;3.00;99.90
23081;DHT22;11708;50.570;8.532;2023-04-08T05:51:13;3.10;99.90
23081;DHT22;11708;50.570;8.532;2023-04-08T05:53:39;3.20;99.90
23081;DHT22;11708;50.570;8.532;2023-04-08T05:56:05;3.30;99.90
23081;DHT22;11708;50.570;8.532;2023-04-08T05:58:31;3.30;99.90
23081;DHT22;11708;50.570;8.532;2023-04-08T06:00:56;3.40;99.90
23081;DHT22;11708;50.570;8.532;2023-04-08T06:03:22;3.40;99.90
23081;DHT22;11708;50.570;8.532;2023-04-08T06:05:47;3.40;99.90
23081;DHT22;11708;50.570;8.532;2023-04-08T06:08:13;3.50;99.90
23081;DHT22;11708;50.570;8.532;2023-04-08T06:10:38;3.50;99.90
23081;DHT22;11708;50.570;8.532;2023-04-08T06:13:04;3.50;99.90
23081;DHT22;11708;50.570;8.532;2023-04-08T06:15:29;3.50;99.90
23081;DHT22;11708;50.570;8.532;2023-04-08T06:17:56;3.60;99.90
23081;DHT22;11708;50.570;8.532;2023-04-08T06:20:22;3.60;99.90
23081;DHT22;11708;50.570;8.532;2023-04-08T06:22:47;3.60;99.90
23081;DHT22;11708;50.570;8.532;2023-04-08T06:25:13;3.60;99.90
23081;DHT22;11708;50.570;8.532;2023-04-08T06:27:38;3.70;99.90
23081;DHT22;11708;50.570;8.532;2023-04-08T06:30:05;3.70;99.90
23081;DHT22;11708;50.570;8.532;2023-04-08T06:32:31;3.70;99.90
23081;DHT22;11708;50.570;8.532;2023-04-08T06:34:56;4.10;99.90
23081;DHT22;11708;50.570;8.532;2023-04-08T06:37:22;3.80;99.90
23081;DHT22;11708;50.570;8.532;2023-04-08T06:42:14;3.90;99.90
23081;DHT22;11708;50.570;8.532;2023-04-08T06:44:40;3.90;99.90
23081;DHT22;11708;50.570;8.532;2023-04-08T06:47:05;4.00;99.90
23081;DHT22;11708;50.570;8.532;2023-04-08T06:49:31;4.00;99.90
23081;DHT22;11708;50.570;8.532;2023-04-08T06:51:56;4.00;99.90
23081;DHT22;11708;50.570;8.532;2023-04-08T06:54:22;4.00;99.90
23081;DHT22;11708;50.570;8.532;2023-04-08T06:56:47;4.00;99.90
23081;DHT22;11708;50.570;8.532;2023-04-08T06:59:13;4.10;99.90
23081;DHT22;11708;50.570;8.532;2023-04-08T07:01:39;4.10;99.90
23081;DHT22;11708;50.570;8.532;2023-04-08T07:04:04;4.10;99.90
23081;DHT22;11708;50.570;8.532;2023-04-08T07:06:30;4.20;99.90
23081;DHT22;11708;50.570;8.532;2023-04-08T07:08:55;4.20;99.90
23081;DHT22;11708;50.570;8.532;2023-04-08T07:11:21;4.20;99.90
23081;DHT22;11708;50.570;8.532;2023-04-08T07:13:46;4.30;99.90
23081;DHT22;11708;50.570;8.532;2023-04-08T07:16:12;4.40;99.90
23081;DHT22;11708;50.570;8.532;2023-04-08T07:18:37;4.40;99.90
23081;DHT22;11708;50.570;8.532;2023-04-08T07:21:03;4.40;99.90
23081;DHT22;11708;50.570;8.532;2023-04-08T07:23:29;4.50;99.90
23081;DHT22;11708;50.570;8.532;2023-04-08T07:25:54;4.50;99.90
23081;DHT22;11708;50.570;8.532;2023-04-08T07:28:20;4.50;99.90
23081;DHT22;11708;50.570;8.532;2023-04-08T07:30:46;4.50;99.90
23081;DHT22;11708;50.570;8.532;2023-04-08T07:33:11;4.60;99.90
23081;DHT22;11708;50.570;8.532;2023-04-08T07:35:37;4.70;99.90
23081;DHT22;11708;50.570;8.532;2023-04-08T07:38:03;4.70;99.90
23081;DHT22;11708;50.570;8.532;2023-04-08T07:40:28;4.80;99.90
23081;DHT22;11708;50.570;8.532;2023-04-08T07:42:54;4.90;99.90
23081;DHT22;11708;50.570;8.532;2023-04-08T07:45:20;4.90;99.90
23081;DHT22;11708;50.570;8.532;2023-04-08T07:47:46;5.00;99.90
23081;DHT22;11708;50.570;8.532;2023-04-08T07:50:12;5.00;99.90
23081;DHT22;11708;50.570;8.532;2023-04-08T07:52:37;5.00;99.90
23081;DHT22;11708;50.570;8.532;2023-04-08T07:55:03;5.20;99.90
23081;DHT22;11708;50.570;8.532;2023-04-08T07:57:30;5.10;99.90
23081;DHT22;11708;50.570;8.532;2023-04-08T07:59:56;5.20;99.90
23081;DHT22;11708;50.570;8.532;2023-04-08T08:02:21;5.20;99.90
23081;DHT22;11708;50.570;8.532;2023-04-08T08:04:47;5.50;99.90
23081;DHT22;11708;50.570;8.532;2023-04-08T08:07:13;5.30;99.90
23081;DHT22;11708;50.570;8.532;2023-04-08T08:09:38;5.40;99.90
23081;DHT22;11708;50.570;8.532;2023-04-08T08:12:04;5.30;99.90
23081;DHT22;11708;50.570;8.532;2023-04-08T08:14:30;5.40;99.90
23081;DHT22;11708;50.570;8.532;2023-04-08T08:16:55;5.40;99.90
23081;DHT22;11708;50.570;8.532;2023-04-08T08:19:21;5.40;99.90
23081;DHT22;11708;50.570;8.532;2023-04-08T08:21:47;5.40;99.90
23081;DHT22;11708;50.570;8.532;2023-04-08T08:24:13;5.50;99.90
23081;DHT22;11708;50.570;8.532;2023-04-08T08:26:38;5.50;99.90
23081;DHT22;11708;50.570;8.532;2023-04-08T08:29:05;6.00;99.90
23081;DHT22;11708;50.570;8.532;2023-04-08T08:31:33;5.60;99.90
23081;DHT22;11708;50.570;8.532;2023-04-08T08:33:58;5.70;99.90
23081;DHT22;11708;50.570;8.532;2023-04-08T08:36:24;5.80;99.90
23081;DHT22;11708;50.570;8.532;2023-04-08T08:38:51;5.90;99.90
23081;DHT22;11708;50.570;8.532;2023-04-08T08:41:18;6.00;99.90
23081;DHT22;11708;50.570;8.532;2023-04-08T08:43:44;6.10;99.90
23081;DHT22;11708;50.570;8.532;2023-04-08T08:46:10;6.20;99.90
23081;DHT22;11708;50.570;8.532;2023-04-08T08:48:36;6.30;99.90
23081;DHT22;11708;50.570;8.532;2023-04-08T08:51:08;6.40;99.90
23081;DHT22;11708;50.570;8.532;2023-04-08T08:53:34;6.40;99.90
23081;DHT22;11708;50.570;8.532;2023-04-08T08:55:59;6.40;99.90
23081;DHT22;11708;50.570;8.532;2023-04-08T08:58:26;6.50;99.90
23081;DHT22;11708;50.570;8.532;2023-04-08T09:00:52;6.50;99.90
23081;DHT22;11708;50.570;8.532;2023-04-08T09:03:18;7.00;99.90
23081;DHT22;11708;50.570;8.532;2023-04-08T09:05:54;6.60;99.90
23081;DHT22;11708;50.570;8.532;2023-04-08T09:08:34;6.70;99.90
23081;DHT22;11708;50.570;8.532;2023-04-08T09:11:20;6.80;99.90
23081;DHT22;11708;50.570;8.532;2023-04-08T09:13:47;6.80;99.90
23081;DHT22;11708;50.570;8.532;2023-04-08T09:16:14;6.90;99.90
23081;DHT22;11708;50.570;8.532;2023-04-08T09:18:43;7.00;99.90
23081;DHT22;11708;50.570;8.532;2023-04-08T09:21:11;7.00;99.90
23081;DHT22;11708;50.570;8.532;2023-04-08T09:23:39;7.10;99.90
23081;DHT22;11708;50.570;8.532;2023-04-08T09:26:12;7.60;99.90
23081;DHT22;11708;50.570;8.532;2023-04-08T09:28:38;7.10;99.90
23081;DHT22;11708;50.570;8.532;2023-04-08T09:31:22;7.10;99.90
23081;DHT22;11708;50.570;8.532;2023-04-08T09:33:49;7.10;99.90
23081;DHT22;11708;50.570;8.532;2023-04-08T09:36:15;7.20;99.90
23081;DHT22;11708;50.570;8.532;2023-04-08T09:38:42;7.20;99.90
23081;DHT22;11708;50.570;8.532;2023-04-08T09:41:10;7.30;99.90
23081;DHT22;11708;50.570;8.532;2023-04-08T09:43:51;7.40;99.90
23081;DHT22;11708;50.570;8.532;2023-04-08T09:49:06;7.50;99.90
23081;DHT22;11708;50.570;8.532;2023-04-08T09:51:48;7.50;99.90
23081;DHT22;11708;50.570;8.532;2023-04-08T09:54:18;7.60;99.90
23081;DHT22;11708;50.570;8.532;2023-04-08T09:57:00;7.60;99.90
23081;DHT22;11708;50.570;8.532;2023-04-08T09:59:26;7.70;99.90
23081;DHT22;11708;50.570;8.532;2023-04-08T10:01:56;7.70;99.90
23081;DHT22;11708;50.570;8.532;2023-04-08T10:04:25;9.00;99.90
23081;DHT22;11708;50.570;8.532;2023-04-08T10:07:03;9.00;99.90
23081;DHT22;11708;50.570;8.532;2023-04-08T10:09:31;7.90;99.90
23081;DHT22;11708;50.570;8.532;2023-04-08T10:11:57;7.90;99.90
23081;DHT22;11708;50.570;8.532;2023-04-08T10:14:23;7.90;99.90
23081;DHT22;11708;50.570;8.532;2023-04-08T10:17:25;8.00;99.90
23081;DHT22;11708;50.570;8.532;2023-04-08T10:19:51;8.10;99.90
23081;DHT22;11708;50.570;8.532;2023-04-08T10:25:36;8.50;99.90
23081;DHT22;11708;50.570;8.532;2023-04-08T10:30:55;8.40;99.90
23081;DHT22;11708;50.570;8.532;2023-04-08T10:33:32;8.60;99.90
23081;DHT22;11708;50.570;8.532;2023-04-08T10:36:11;8.90;99.90
23081;DHT22;11708;50.570;8.532;2023-04-08T10:38:40;8.30;99.90
23081;DHT22;11708;50.570;8.532;2023-04-08T10:41:11;8.00;99.90
23081;DHT22;11708;50.570;8.532;2023-04-08T10:43:46;8.80;99.90
23081;DHT22;11708;50.570;8.532;2023-04-08T10:46:11;9.10;99.90
23081;DHT22;11708;50.570;8.532;2023-04-08T10:48:37;9.00;99.90
23081;DHT22;11708;50.570;8.532;2023-04-08T10:51:04;9.10;99.90
23081;DHT22;11708;50.570;8.532;2023-04-08T10:53:37;9.20;99.90
23081;DHT22;11708;50.570;8.532;2023-04-08T10:58:34;8.80;99.90
23081;DHT22;11708;50.570;8.532;2023-04-08T11:01:06;9.30;99.90
23081;DHT22;11708;50.570;8.532;2023-04-08T11:03:33;9.70;99.90
23081;DHT22;11708;50.570;8.532;2023-04-08T11:06:00;9.70;99.90
23081;DHT22;11708;50.570;8.532;2023-04-08T11:08:27;9.70;99.90
23081;DHT22;11708;50.570;8.532;2023-04-08T11:10:54;10.70;99.90
23081;DHT22;11708;50.570;8.532;2023-04-08T11:13:20;11.80;99.90
23081;DHT22;11708;50.570;8.532;2023-04-08T11:15:46;10.70;99.90
23081;DHT22;11708;50.570;8.532;2023-04-08T11:18:12;10.20;99.90
23081;DHT22;11708;50.570;8.532;2023-04-08T11:20:38;10.60;99.90
23081;DHT22;11708;50.570;8.532;2023-04-08T11:23:13;10.00;99.90
23081;DHT22;11708;50.570;8.532;2023-04-08T11:25:43;10.90;99.90
23081;DHT22;11708;50.570;8.532;2023-04-08T11:28:10;11.00;99.90
23081;DHT22;11708;50.570;8.532;2023-04-08T11:30:38;11.00;99.90
23081;DHT22;11708;50.570;8.532;2023-04-08T11:33:04;11.20;99.90
23081;DHT22;11708;50.570;8.532;2023-04-08T11:35:30;11.70;99.90
23081;DHT22;11708;50.570;8.532;2023-04-08T11:37:56;11.20;99.90
23081;DHT22;11708;50.570;8.532;2023-04-08T11:40:22;11.10;99.90
23081;DHT22;11708;50.570;8.532;2023-04-08T11:42:50;11.10;99.90
23081;DHT22;11708;50.570;8.532;2023-04-08T11:45:20;11.10;99.90
23081;DHT22;11708;50.570;8.532;2023-04-08T11:47:50;11.10;99.90
23081;DHT22;11708;50.570;8.532;2023-04-08T11:50:25;11.00;99.90
23081;DHT22;11708;50.570;8.532;2023-04-08T11:52:54;11.00;99.90
23081;DHT22;11708;50.570;8.532;2023-04-08T11:55:27;11.10;99.90
23081;DHT22;11708;50.570;8.532;2023-04-08T11:57:54;11.20;99.90
23081;DHT22;11708;50.570;8.532;2023-04-08T12:00:20;11.30;99.90
23081;DHT22;11708;50.570;8.532;2023-04-08T12:02:49;11.50;99.90
23081;DHT22;11708;50.570;8.532;2023-04-08T12:05:15;11.40;99.90
23081;DHT22;11708;50.570;8.532;2023-04-08T12:07:42;11.70;99.90
23081;DHT22;11708;50.570;8.532;2023-04-08T12:10:08;11.80;99.90
23081;DHT22;11708;50.570;8.532;2023-04-08T12:12:34;11.70;99.90
23081;DHT22;11708;50.570;8.532;2023-04-08T12:15:00;11.70;99.90
23081;DHT22;11708;50.570;8.532;2023-04-08T12:17:26;11.50;99.90
23081;DHT22;11708;50.570;8.532;2023-04-08T12:19:52;11.70;99.90
23081;DHT22;11708;50.570;8.532;2023-04-08T12:22:17;11.90;99.90
23081;DHT22;11708;50.570;8.532;2023-04-08T12:24:43;13.00;99.90
23081;DHT22;11708;50.570;8.532;2023-04-08T12:27:08;12.80;99.90
23081;DHT22;11708;50.570;8.532;2023-04-08T12:29:34;12.10;99.90
23081;DHT22;11708;50.570;8.532;2023-04-08T12:32:00;11.60;99.90
23081;DHT22;11708;50.570;8.532;2023-04-08T12:34:26;11.70;99.90
23081;DHT22;11708;50.570;8.532;2023-04-08T12:36:52;11.80;99.90
23081;DHT22;11708;50.570;8.532;2023-04-08T12:39:17;12.10;99.90
23081;DHT22;11708;50.570;8.532;2023-04-08T12:41:43;12.00;99.90
23081;DHT22;11708;50.570;8.532;2023-04-08T12:44:08;12.10;99.90
23081;DHT22;11708;50.570;8.532;2023-04-08T12:46:35;12.60;99.90
23081;DHT22;11708;50.570;8.532;2023-04-08T12:49:00;13.20;99.90
23081;DHT22;11708;50.570;8.532;2023-04-08T12:51:26;12.80;99.90
23081;DHT22;11708;50.570;8.532;2023-04-08T12:53:51;13.20;99.90
23081;DHT22;11708;50.570;8.532;2023-04-08T12:56:17;12.90;99.90
23081;DHT22;11708;50.570;8.532;2023-04-08T12:58:43;12.90;99.90
23081;DHT22;11708;50.570;8.532;2023-04-08T13:01:08;12.70;99.90
23081;DHT22;11708;50.570;8.532;2023-04-08T13:03:34;12.60;99.90
23081;DHT22;11708;50.570;8.532;2023-04-08T13:06:00;12.60;99.90
23081;DHT22;11708;50.570;8.532;2023-04-08T13:08:26;12.70;99.90
23081;DHT22;11708;50.570;8.532;2023-04-08T13:10:52;12.50;99.90
23081;DHT22;11708;50.570;8.532;2023-04-08T13:13:17;12.60;99.90
23081;DHT22;11708;50.570;8.532;2023-04-08T13:15:43;12.80;99.90
23081;DHT22;11708;50.570;8.532;2023-04-08T13:18:09;13.20;99.90
23081;DHT22;11708;50.570;8.532;2023-04-08T13:20:34;13.20;99.90
23081;DHT22;11708;50.570;8.532;2023-04-08T13:23:00;13.50;99.90
23081;DHT22;11708;50.570;8.532;2023-04-08T13:25:26;13.50;99.90
23081;DHT22;11708;50.570;8.532;2023-04-08T13:27:52;13.50;99.90
23081;DHT22;11708;50.570;8.532;2023-04-08T13:30:17;14.00;99.90
23081;DHT22;11708;50.570;8.532;2023-04-08T13:32:43;13.40;99.90
23081;DHT22;11708;50.570;8.532;2023-04-08T13:35:09;13.30;99.90
23081;DHT22;11708;50.570;8.532;2023-04-08T13:37:35;13.30;99.90
23081;DHT22;11708;50.570;8.532;2023-04-08T13:40:00;13.20;99.90
23081;DHT22;11708;50.570;8.532;2023-04-08T13:42:26;13.00;99.90
23081;DHT22;11708;50.570;8.532;2023-04-08T13:44:52;12.70;99.90
23081;DHT22;11708;50.570;8.532;2023-04-08T13:47:17;13.00;99.90
23081;DHT22;11708;50.570;8.532;2023-04-08T13:49:43;12.90;99.90
23081;DHT22;11708;50.570;8.532;2023-04-08T13:52:09;13.20;99.90
23081;DHT22;11708;50.570;8.532;2023-04-08T13:54:34;12.90;99.90
23081;DHT22;11708;50.570;8.532;2023-04-08T13:57:00;12.90;99.90
23081;DHT22;11708;50.570;8.532;2023-04-08T13:59:26;12.90;99.90
23081;DHT22;11708;50.570;8.532;2023-04-08T14:01:51;12.90;99.90
23081;DHT22;11708;50.570;8.532;2023-04-08T14:04:21;13.40;99.90
23081;DHT22;11708;50.570;8.532;2023-04-08T14:06:48;13.00;99.90
23081;DHT22;11708;50.570;8.532;2023-04-08T14:09:16;13.00;99.90
23081;DHT22;11708;50.570;8.532;2023-04-08T14:11:42;13.00;99.90
23081;DHT22;11708;50.570;8.532;2023-04-08T14:14:07;13.60;99.90
23081;DHT22;11708;50.570;8.532;2023-04-08T14:16:33;13.00;99.90
23081;DHT22;11708;50.570;8.532;2023-04-08T14:19:00;13.20;99.90
23081;DHT22;11708;50.570;8.532;2023-04-08T14:21:25;13.00;99.90
23081;DHT22;11708;50.570;8.532;2023-04-08T14:23:51;13.30;99.90
23081;DHT22;11708;50.570;8.532;2023-04-08T14:26:17;13.00;99.90
23081;DHT22;11708;50.570;8.532;2023-04-08T14:28:42;12.90;99.90
23081;DHT22;11708;50.570;8.532;2023-04-08T14:31:08;12.80;99.90
23081;DHT22;11708;50.570;8.532;2023-04-08T14:33:33;13.00;99.90
23081;DHT22;11708;50.570;8.532;2023-04-08T14:35:59;12.80;99.90
23081;DHT22;11708;50.570;8.532;2023-04-08T14:38:25;12.80;99.90
23081;DHT22;11708;50.570;8.532;2023-04-08T14:40:51;12.90;99.90
23081;DHT22;11708;50.570;8.532;2023-04-08T14:43:16;12.90;99.90
23081;DHT22;11708;50.570;8.532;2023-04-08T14:45:42;13.40;99.90
23081;DHT22;11708;50.570;8.532;2023-04-08T14:48:09;13.20;99.90
23081;DHT22;11708;50.570;8.532;2023-04-08T14:50:35;13.00;99.90
23081;DHT22;11708;50.570;8.532;2023-04-08T14:53:00;13.10;99.90
23081;DHT22;11708;50.570;8.532;2023-04-08T14:55:26;13.10;99.90
23081;DHT22;11708;50.570;8.532;2023-04-08T14:57:54;13.40;99.90
23081;DHT22;11708;50.570;8.532;2023-04-08T15:00:19;13.10;99.90
23081;DHT22;11708;50.570;8.532;2023-04-08T15:02:45;13.20;99.90
23081;DHT22;11708;50.570;8.532;2023-04-08T15:05:11;13.80;99.90
23081;DHT22;11708;50.570;8.532;2023-04-08T15:07:36;13.40;99.90
23081;DHT22;11708;50.570;8.532;2023-04-08T15:10:02;13.70;99.90
23081;DHT22;11708;50.570;8.532;2023-04-08T15:12:27;13.30;99.90
23081;DHT22;11708;50.570;8.532;2023-04-08T15:14:53;13.10;99.90
23081;DHT22;11708;50.570;8.532;2023-04-08T15:17:19;13.00;99.90
23081;DHT22;11708;50.570;8.532;2023-04-08T15:19:44;13.10;99.90
23081;DHT22;11708;50.570;8.532;2023-04-08T15:22:11;13.10;99.90
23081;DHT22;11708;50.570;8.532;2023-04-08T15:24:37;13.40;99.90
23081;DHT22;11708;50.570;8.532;2023-04-08T15:27:02;12.90;99.90
23081;DHT22;11708;50.570;8.532;2023-04-08T15:29:28;13.90;99.90
23081;DHT22;11708;50.570;8.532;2023-04-08T15:31:53;12.70;99.90
23081;DHT22;11708;50.570;8.532;2023-04-08T15:34:19;12.90;99.90
23081;DHT22;11708;50.570;8.532;2023-04-08T15:36:44;12.60;99.90
23081;DHT22;11708;50.570;8.532;2023-04-08T15:39:11;12.70;99.90
23081;DHT22;11708;50.570;8.532;2023-04-08T15:41:37;12.80;99.90
23081;DHT22;11708;50.570;8.532;2023-04-08T15:44:03;13.50;99.90
23081;DHT22;11708;50.570;8.532;2023-04-08T15:46:28;12.70;99.90
23081;DHT22;11708;50.570;8.532;2023-04-08T15:48:54;13.20;99.90
23081;DHT22;11708;50.570;8.532;2023-04-08T15:51:19;12.80;99.90
23081;DHT22;11708;50.570;8.532;2023-04-08T15:53:45;13.40;99.90
23081;DHT22;11708;50.570;8.532;2023-04-08T15:56:12;13.70;99.90
23081;DHT22;11708;50.570;8.532;2023-04-08T15:58:38;13.20;99.90
23081;DHT22;11708;50.570;8.532;2023-04-08T16:01:04;13.20;99.90
23081;DHT22;11708;50.570;8.532;2023-04-08T16:03:29;13.40;99.90
23081;DHT22;11708;50.570;8.532;2023-04-08T16:05:55;13.50;99.90
23081;DHT22;11708;50.570;8.532;2023-04-08T16:08:21;13.20;99.90
23081;DHT22;11708;50.570;8.532;2023-04-08T16:13:13;13.40;99.90
23081;DHT22;11708;50.570;8.532;2023-04-08T16:15:39;13.40;99.90
23081;DHT22;11708;50.570;8.532;2023-04-08T16:18:04;13.40;99.90